sensor_id;sensor_type;location;lat;lon;timestamp;pressure;altitude;pressure_sealevel;temperature;humidity
72959;BME280;60008;50.826;6.896;2023-03-01T00:01:41;102321.59;;;-1.13;100.00
72959;BME280;60008;50.826;6.896;2023-03-01T00:04:26;102316.44;;;-1.14;100.00
72959;BME280;60008;50.826;6.896;2023-03-01T00:07:12;102328.41;;;-1.09;100.00
72959;BME280;60008;50.826;6.896;2023-03-01T00:09:57;102328.59;;;-1.15;100.00
72959;BME280;60008;50.826;6.896;2023-03-01T00:12:42;102323.56;;;-1.21;100.00
72959;BME280;60008;50.826;6.896;2023-03-01T00:15:27;102330.47;;;-1.20;100.00
72959;BME280;60008;50.826;6.896;2023-03-01T00:18:13;102333.22;;;-1.25;100.00
72959;BME280;60008;50.826;6.896;2023-03-01T00:20:58;102333.25;;;-1.26;100.00
72959;BME280;60008;50.826;6.896;2023-03-01T00:23:43;102336.75;;;-1.27;100.00
72959;BME280;60008;50.826;6.896;2023-03-01T00:26:28;102336.91;;;-1.32;100.00
72959;BME280;60008;50.826;6.896;2023-03-01T00:29:13;102331.72;;;-1.33;100.00
72959;BME280;60008;50.826;6.896;2023-03-01T00:31:59;102336.00;;;-1.31;100.00
72959;BME280;60008;50.826;6.896;2023-03-01T00:34:43;102337.00;;;-1.35;100.00
72959;BME280;60008;50.826;6.896;2023-03-01T00:37:38;102323.94;;;-1.33;100.00
72959;BME280;60008;50.826;6.896;2023-03-01T00:40:29;102323.03;;;-1.32;100.00
72959;BME280;60008;50.826;6.896;2023-03-01T00:43:14;102330.47;;;-1.20;100.00
72959;BME280;60008;50.826;6.896;2023-03-01T00:46:01;102326.53;;;-1.33;100.00
72959;BME280;60008;50.826;6.896;2023-03-01T00:48:46;102327.59;;;-1.39;100.00
72959;BME280;60008;50.826;6.896;2023-03-01T00:51:31;102323.19;;;-1.37;100.00
72959;BME280;60008;50.826;6.896;2023-03-01T00:54:16;102318.59;;;-1.29;100.00
72959;BME280;60008;50.826;6.896;2023-03-01T00:57:01;102317.84;;;-1.32;100.00
72959;BME280;60008;50.826;6.896;2023-03-01T00:59:46;102318.53;;;-1.27;100.00
72959;BME280;60008;50.826;6.896;2023-03-01T01:02:32;102315.06;;;-1.26;100.00
72959;BME280;60008;50.826;6.896;2023-03-01T01:05:18;102322.78;;;-1.23;100.00
72959;BME280;60008;50.826;6.896;2023-03-01T01:08:05;102316.03;;;-1.30;100.00
72959;BME280;60008;50.826;6.896;2023-03-01T01:10:50;102306.59;;;-1.33;100.00
72959;BME280;60008;50.826;6.896;2023-03-01T01:13:36;102305.00;;;-1.37;100.00
72959;BME280;60008;50.826;6.896;2023-03-01T01:16:22;102309.94;;;-1.29;100.00
72959;BME280;60008;50.826;6.896;2023-03-01T01:19:10;102298.13;;;-1.39;100.00
72959;BME280;60008;50.826;6.896;2023-03-01T01:21:55;102302.16;;;-1.29;100.00
72959;BME280;60008;50.826;6.896;2023-03-01T01:24:40;102300.66;;;-1.36;100.00
72959;BME280;60008;50.826;6.896;2023-03-01T01:27:25;102298.03;;;-1.36;100.00
72959;BME280;60008;50.826;6.896;2023-03-01T01:30:11;102283.00;;;-1.27;100.00
72959;BME280;60008;50.826;6.896;2023-03-01T01:32:56;102279.88;;;-1.38;100.00
72959;BME280;60008;50.826;6.896;2023-03-01T01:35:45;102276.34;;;-1.35;100.00
72959;BME280;60008;50.826;6.896;2023-03-01T01:38:30;102271.22;;;-1.38;100.00
72959;BME280;60008;50.826;6.896;2023-03-01T01:41:15;102267.88;;;-1.42;100.00
72959;BME280;60008;50.826;6.896;2023-03-01T01:44:17;102275.72;;;-1.43;100.00
72959;BME280;60008;50.826;6.896;2023-03-01T01:47:12;102265.41;;;-1.46;100.00
72959;BME280;60008;50.826;6.896;2023-03-01T01:49:59;102267.22;;;-1.48;100.00
72959;BME280;60008;50.826;6.896;2023-03-01T01:52:45;102266.50;;;-1.53;100.00
72959;BME280;60008;50.826;6.896;2023-03-01T01:55:31;102254.38;;;-1.54;100.00
72959;BME280;60008;50.826;6.896;2023-03-01T01:58:18;102260.13;;;-1.43;100.00
72959;BME280;60008;50.826;6.896;2023-03-01T02:01:04;102256.66;;;-1.44;100.00
72959;BME280;60008;50.826;6.896;2023-03-01T02:03:50;102262.63;;;-1.40;100.00
72959;BME280;60008;50.826;6.896;2023-03-01T02:06:46;102269.75;;;-1.47;100.00
72959;BME280;60008;50.826;6.896;2023-03-01T02:09:33;102260.34;;;-1.51;100.00
72959;BME280;60008;50.826;6.896;2023-03-01T02:12:21;102255.06;;;-1.48;100.00
72959;BME280;60008;50.826;6.896;2023-03-01T02:15:07;102250.91;;;-1.53;100.00
72959;BME280;60008;50.826;6.896;2023-03-01T02:17:54;102255.25;;;-1.54;100.00
72959;BME280;60008;50.826;6.896;2023-03-01T02:23:33;102248.66;;;-1.65;100.00
72959;BME280;60008;50.826;6.896;2023-03-01T02:26:45;102250.53;;;-1.69;100.00
72959;BME280;60008;50.826;6.896;2023-03-01T02:29:31;102240.31;;;-1.75;100.00
72959;BME280;60008;50.826;6.896;2023-03-01T02:32:17;102236.13;;;-1.81;100.00
72959;BME280;60008;50.826;6.896;2023-03-01T02:35:12;102243.00;;;-1.78;100.00
72959;BME280;60008;50.826;6.896;2023-03-01T02:37:58;102237.94;;;-1.83;100.00
72959;BME280;60008;50.826;6.896;2023-03-01T02:40:45;102237.22;;;-1.88;100.00
72959;BME280;60008;50.826;6.896;2023-03-01T02:43:32;102233.84;;;-1.91;100.00
72959;BME280;60008;50.826;6.896;2023-03-01T02:46:20;102237.22;;;-1.88;100.00
72959;BME280;60008;50.826;6.896;2023-03-01T02:49:22;102239.06;;;-1.91;100.00
72959;BME280;60008;50.826;6.896;2023-03-01T02:55:10;102242.59;;;-1.94;100.00
72959;BME280;60008;50.826;6.896;2023-03-01T02:57:55;102233.97;;;-1.96;100.00
72959;BME280;60008;50.826;6.896;2023-03-01T03:00:42;102234.75;;;-1.92;100.00
72959;BME280;60008;50.826;6.896;2023-03-01T03:03:31;102226.28;;;-1.99;100.00
72959;BME280;60008;50.826;6.896;2023-03-01T03:06:16;102228.91;;;-1.99;100.00
72959;BME280;60008;50.826;6.896;2023-03-01T03:09:02;102228.22;;;-2.05;100.00
72959;BME280;60008;50.826;6.896;2023-03-01T03:11:47;102227.53;;;-2.12;100.00
72959;BME280;60008;50.826;6.896;2023-03-01T03:14:32;102218.94;;;-2.14;100.00
72959;BME280;60008;50.826;6.896;2023-03-01T03:17:19;102224.28;;;-2.20;100.00
72959;BME280;60008;50.826;6.896;2023-03-01T03:20:05;102217.50;;;-2.24;100.00
72959;BME280;60008;50.826;6.896;2023-03-01T03:22:53;102227.06;;;-2.26;100.00
72959;BME280;60008;50.826;6.896;2023-03-01T03:25:39;102216.47;;;-2.18;100.00
72959;BME280;60008;50.826;6.896;2023-03-01T03:28:24;102211.28;;;-2.18;100.00
72959;BME280;60008;50.826;6.896;2023-03-01T03:31:09;102207.03;;;-2.21;100.00
72959;BME280;60008;50.826;6.896;2023-03-01T03:33:54;102207.25;;;-2.28;100.00
72959;BME280;60008;50.826;6.896;2023-03-01T03:36:39;102207.34;;;-2.31;100.00
72959;BME280;60008;50.826;6.896;2023-03-01T03:39:25;102206.31;;;-2.26;100.00
72959;BME280;60008;50.826;6.896;2023-03-01T03:42:10;102205.47;;;-2.28;100.00
72959;BME280;60008;50.826;6.896;2023-03-01T03:44:55;102208.00;;;-2.25;100.00
72959;BME280;60008;50.826;6.896;2023-03-01T03:47:41;102200.34;;;-2.29;100.00
72959;BME280;60008;50.826;6.896;2023-03-01T03:50:26;102200.47;;;-2.34;100.00
72959;BME280;60008;50.826;6.896;2023-03-01T03:53:12;102195.38;;;-2.37;100.00
72959;BME280;60008;50.826;6.896;2023-03-01T03:55:57;102202.84;;;-2.26;100.00
72959;BME280;60008;50.826;6.896;2023-03-01T03:58:42;102204.91;;;-2.37;100.00
72959;BME280;60008;50.826;6.896;2023-03-01T04:01:27;102202.38;;;-2.41;100.00
72959;BME280;60008;50.826;6.896;2023-03-01T04:04:12;102191.19;;;-2.43;100.00
72959;BME280;60008;50.826;6.896;2023-03-01T04:06:58;102190.13;;;-2.35;100.00
72959;BME280;60008;50.826;6.896;2023-03-01T04:09:43;102173.63;;;-2.33;100.00
72959;BME280;60008;50.826;6.896;2023-03-01T04:12:28;102175.66;;;-2.44;100.00
72959;BME280;60008;50.826;6.896;2023-03-01T04:15:13;102174.09;;;-2.50;100.00
72959;BME280;60008;50.826;6.896;2023-03-01T04:17:58;102174.84;;;-2.46;100.00
72959;BME280;60008;50.826;6.896;2023-03-01T04:20:44;102170.69;;;-2.52;100.00
72959;BME280;60008;50.826;6.896;2023-03-01T04:23:30;102170.75;;;-2.55;100.00
72959;BME280;60008;50.826;6.896;2023-03-01T04:26:15;102169.03;;;-2.54;100.00
72959;BME280;60008;50.826;6.896;2023-03-01T04:29:00;102175.84;;;-2.50;100.00
72959;BME280;60008;50.826;6.896;2023-03-01T04:31:45;102178.56;;;-2.55;100.00
72959;BME280;60008;50.826;6.896;2023-03-01T04:34:30;102178.63;;;-2.58;100.00
72959;BME280;60008;50.826;6.896;2023-03-01T04:37:15;102178.53;;;-2.53;100.00
72959;BME280;60008;50.826;6.896;2023-03-01T04:40:04;102173.97;;;-2.45;100.00
72959;BME280;60008;50.826;6.896;2023-03-01T04:43:02;102177.66;;;-2.54;100.00
72959;BME280;60008;50.826;6.896;2023-03-01T04:45:47;102176.88;;;-2.56;100.00
72959;BME280;60008;50.826;6.896;2023-03-01T04:48:32;102182.06;;;-2.56;100.00
72959;BME280;60008;50.826;6.896;2023-03-01T04:51:17;102175.00;;;-2.51;100.00
72959;BME280;60008;50.826;6.896;2023-03-01T04:54:03;102164.63;;;-2.52;100.00
72959;BME280;60008;50.826;6.896;2023-03-01T04:56:48;102167.44;;;-2.58;100.00
72959;BME280;60008;50.826;6.896;2023-03-01T04:59:33;102157.06;;;-2.60;100.00
72959;BME280;60008;50.826;6.896;2023-03-01T05:02:18;102158.22;;;-2.70;100.00
72959;BME280;60008;50.826;6.896;2023-03-01T05:05:03;102164.34;;;-2.72;100.00
72959;BME280;60008;50.826;6.896;2023-03-01T05:07:51;102170.41;;;-2.72;100.00
72959;BME280;60008;50.826;6.896;2023-03-01T05:10:36;102165.28;;;-2.75;100.00
72959;BME280;60008;50.826;6.896;2023-03-01T05:13:23;102171.28;;;-2.73;100.00
72959;BME280;60008;50.826;6.896;2023-03-01T05:16:09;102164.28;;;-2.71;100.00
72959;BME280;60008;50.826;6.896;2023-03-01T05:18:58;102169.47;;;-2.71;100.00
72959;BME280;60008;50.826;6.896;2023-03-01T05:21:43;102172.16;;;-2.74;100.00
72959;BME280;60008;50.826;6.896;2023-03-01T05:24:46;102169.53;;;-2.72;100.00
72959;BME280;60008;50.826;6.896;2023-03-01T05:27:31;102172.16;;;-2.74;100.00
72959;BME280;60008;50.826;6.896;2023-03-01T05:30:17;102168.72;;;-2.74;100.00
72959;BME280;60008;50.826;6.896;2023-03-01T05:33:02;102165.44;;;-2.81;100.00
72959;BME280;60008;50.826;6.896;2023-03-01T05:35:47;102167.09;;;-2.78;100.00
72959;BME280;60008;50.826;6.896;2023-03-01T05:38:33;102167.97;;;-2.79;100.00
72959;BME280;60008;50.826;6.896;2023-03-01T05:41:18;102164.59;;;-2.81;100.00
72959;BME280;60008;50.826;6.896;2023-03-01T05:44:06;102165.44;;;-2.81;100.00
72959;BME280;60008;50.826;6.896;2023-03-01T05:46:51;102163.88;;;-2.86;100.00
72959;BME280;60008;50.826;6.896;2023-03-01T05:49:36;102170.88;;;-2.90;100.00
72959;BME280;60008;50.826;6.896;2023-03-01T05:52:23;102170.84;;;-2.88;100.00
72959;BME280;60008;50.826;6.896;2023-03-01T05:55:09;102170.00;;;-2.90;100.00
72959;BME280;60008;50.826;6.896;2023-03-01T05:57:54;102172.56;;;-2.89;100.00
72959;BME280;60008;50.826;6.896;2023-03-01T06:00:39;102170.94;;;-2.93;100.00
72959;BME280;60008;50.826;6.896;2023-03-01T06:03:25;102179.41;;;-2.86;100.00
72959;BME280;60008;50.826;6.896;2023-03-01T06:06:10;102173.44;;;-2.88;100.00
72959;BME280;60008;50.826;6.896;2023-03-01T06:08:55;102162.31;;;-2.93;100.00
72959;BME280;60008;50.826;6.896;2023-03-01T06:11:40;102165.00;;;-2.96;100.00
72959;BME280;60008;50.826;6.896;2023-03-01T06:14:25;102158.16;;;-2.99;100.00
72959;BME280;60008;50.826;6.896;2023-03-01T06:17:10;102156.56;;;-3.05;100.00
72959;BME280;60008;50.826;6.896;2023-03-01T06:19:55;102154.81;;;-3.04;100.00
72959;BME280;60008;50.826;6.896;2023-03-01T06:22:40;102159.06;;;-3.02;100.00
72959;BME280;60008;50.826;6.896;2023-03-01T06:25:26;102161.69;;;-3.03;100.00
72959;BME280;60008;50.826;6.896;2023-03-01T06:28:11;102153.94;;;-3.03;100.00
72959;BME280;60008;50.826;6.896;2023-03-01T06:30:56;102167.69;;;-2.99;100.00
72959;BME280;60008;50.826;6.896;2023-03-01T06:33:42;102158.19;;;-3.01;100.00
72959;BME280;60008;50.826;6.896;2023-03-01T06:36:29;102166.59;;;-2.92;100.00
72959;BME280;60008;50.826;6.896;2023-03-01T06:39:15;102157.81;;;-2.87;100.00
72959;BME280;60008;50.826;6.896;2023-03-01T06:42:01;102150.91;;;-2.86;100.00
72959;BME280;60008;50.826;6.896;2023-03-01T06:44:46;102160.34;;;-2.84;100.00
72959;BME280;60008;50.826;6.896;2023-03-01T06:47:32;102157.69;;;-2.82;100.00
72959;BME280;60008;50.826;6.896;2023-03-01T06:50:21;102156.59;;;-2.74;100.00
72959;BME280;60008;50.826;6.896;2023-03-01T06:53:06;102163.63;;;-2.77;100.00
72959;BME280;60008;50.826;6.896;2023-03-01T06:55:57;102158.22;;;-2.70;100.00
72959;BME280;60008;50.826;6.896;2023-03-01T06:58:44;102164.22;;;-2.68;100.00
72959;BME280;60008;50.826;6.896;2023-03-01T07:01:29;102156.34;;;-2.65;100.00
72959;BME280;60008;50.826;6.896;2023-03-01T07:04:15;102164.84;;;-2.58;100.00
72959;BME280;60008;50.826;6.896;2023-03-01T07:06:59;102169.50;;;-2.40;100.00
72959;BME280;60008;50.826;6.896;2023-03-01T07:09:45;102172.00;;;-2.37;100.00
72959;BME280;60008;50.826;6.896;2023-03-01T07:12:31;102171.16;;;-2.37;100.00
72959;BME280;60008;50.826;6.896;2023-03-01T07:15:16;102163.28;;;-2.34;100.00
72959;BME280;60008;50.826;6.896;2023-03-01T07:18:02;102164.09;;;-2.32;100.00
72959;BME280;60008;50.826;6.896;2023-03-01T07:20:47;102156.28;;;-2.32;100.00
72959;BME280;60008;50.826;6.896;2023-03-01T07:23:32;102153.75;;;-2.34;100.00
72959;BME280;60008;50.826;6.896;2023-03-01T07:26:17;102150.03;;;-2.25;100.00
72959;BME280;60008;50.826;6.896;2023-03-01T07:29:03;102148.91;;;-2.17;100.00
72959;BME280;60008;50.826;6.896;2023-03-01T07:31:49;102141.66;;;-2.06;100.00
72959;BME280;60008;50.826;6.896;2023-03-01T07:34:33;102144.94;;;-1.99;100.00
72959;BME280;60008;50.826;6.896;2023-03-01T07:37:18;102147.13;;;-1.87;100.00
72959;BME280;60008;50.826;6.896;2023-03-01T07:40:04;102139.75;;;-1.73;100.00
72959;BME280;60008;50.826;6.896;2023-03-01T07:42:55;102141.28;;;-1.66;100.00
72959;BME280;60008;50.826;6.896;2023-03-01T07:45:40;102138.88;;;-1.46;100.00
72959;BME280;60008;50.826;6.896;2023-03-01T07:48:25;102143.91;;;-1.40;100.00
72959;BME280;60008;50.826;6.896;2023-03-01T07:51:10;102138.13;;;-1.23;100.00
72959;BME280;60008;50.826;6.896;2023-03-01T07:53:55;102132.31;;;-1.05;100.00
72959;BME280;60008;50.826;6.896;2023-03-01T07:56:40;102135.28;;;-0.91;100.00
72959;BME280;60008;50.826;6.896;2023-03-01T07:59:25;102137.69;;;-0.85;100.00
72959;BME280;60008;50.826;6.896;2023-03-01T08:02:13;102127.94;;;-0.80;100.00
72959;BME280;60008;50.826;6.896;2023-03-01T08:04:59;102128.31;;;-0.66;100.00
72959;BME280;60008;50.826;6.896;2023-03-01T08:07:45;102125.31;;;-0.55;100.00
72959;BME280;60008;50.826;6.896;2023-03-01T08:10:30;102127.09;;;-0.57;100.00
72959;BME280;60008;50.826;6.896;2023-03-01T08:13:15;102124.06;;;-0.45;100.00
72959;BME280;60008;50.826;6.896;2023-03-01T08:16:01;102116.81;;;-0.37;100.00
72959;BME280;60008;50.826;6.896;2023-03-01T08:18:47;102120.22;;;-0.35;100.00
72959;BME280;60008;50.826;6.896;2023-03-01T08:21:32;102121.50;;;-0.23;100.00
72959;BME280;60008;50.826;6.896;2023-03-01T08:24:16;102126.53;;;-0.19;100.00
72959;BME280;60008;50.826;6.896;2023-03-01T08:27:01;102128.69;;;-0.07;100.00
72959;BME280;60008;50.826;6.896;2023-03-01T08:29:47;102117.72;;;-0.15;100.00
72959;BME280;60008;50.826;6.896;2023-03-01T08:32:37;102134.72;;;-0.28;100.00
72959;BME280;60008;50.826;6.896;2023-03-01T08:35:22;102128.72;;;-0.08;100.00
72959;BME280;60008;50.826;6.896;2023-03-01T08:38:08;102121.31;;;0.05;100.00
72959;BME280;60008;50.826;6.896;2023-03-01T08:40:53;102116.34;;;-0.02;100.00
72959;BME280;60008;50.826;6.896;2023-03-01T08:43:38;102110.47;;;0.15;100.00
72959;BME280;60008;50.826;6.896;2023-03-01T08:46:23;102115.78;;;0.34;100.00
72959;BME280;60008;50.826;6.896;2023-03-01T08:49:14;102117.19;;;0.42;100.00
72959;BME280;60008;50.826;6.896;2023-03-01T08:52:01;102117.84;;;0.47;100.00
72959;BME280;60008;50.826;6.896;2023-03-01T08:54:48;102120.81;;;0.38;100.00
72959;BME280;60008;50.826;6.896;2023-03-01T08:57:33;102122.16;;;0.48;100.00
72959;BME280;60008;50.826;6.896;2023-03-01T09:00:18;102128.16;;;0.50;100.00
72959;BME280;60008;50.826;6.896;2023-03-01T09:03:04;102112.91;;;0.62;100.00
72959;BME280;60008;50.826;6.896;2023-03-01T09:05:50;102111.50;;;0.95;100.00
72959;BME280;60008;50.826;6.896;2023-03-01T09:08:40;102115.06;;;1.12;100.00
72959;BME280;60008;50.826;6.896;2023-03-01T09:11:25;102121.16;;;0.73;100.00
72959;BME280;60008;50.826;6.896;2023-03-01T09:14:11;102110.75;;;1.11;100.00
72959;BME280;60008;50.826;6.896;2023-03-01T09:16:56;102113.22;;;1.35;100.00
72959;BME280;60008;50.826;6.896;2023-03-01T09:19:41;102111.31;;;1.38;100.00
72959;BME280;60008;50.826;6.896;2023-03-01T09:22:26;102106.28;;;1.34;100.00
72959;BME280;60008;50.826;6.896;2023-03-01T09:25:11;102097.94;;;1.26;100.00
72959;BME280;60008;50.826;6.896;2023-03-01T09:27:56;102093.59;;;1.63;100.00
72959;BME280;60008;50.826;6.896;2023-03-01T09:30:41;102086.59;;;2.01;100.00
72959;BME280;60008;50.826;6.896;2023-03-01T09:33:27;102087.16;;;2.61;100.00
72959;BME280;60008;50.826;6.896;2023-03-01T09:36:16;102079.69;;;5.19;95.12
72959;BME280;60008;50.826;6.896;2023-03-01T09:39:02;102077.00;;;4.47;88.67
72959;BME280;60008;50.826;6.896;2023-03-01T09:42:01;102062.34;;;5.85;79.90
72959;BME280;60008;50.826;6.896;2023-03-01T09:44:54;102074.66;;;4.42;78.70
72959;BME280;60008;50.826;6.896;2023-03-01T09:47:42;102067.09;;;3.75;86.78
72959;BME280;60008;50.826;6.896;2023-03-01T09:50:33;102066.03;;;4.40;82.86
72959;BME280;60008;50.826;6.896;2023-03-01T09:53:31;102062.31;;;6.26;80.56
72959;BME280;60008;50.826;6.896;2023-03-01T09:56:28;102059.06;;;8.10;65.90
72959;BME280;60008;50.826;6.896;2023-03-01T09:59:41;102062.94;;;3.55;85.40
72959;BME280;60008;50.826;6.896;2023-03-01T10:02:45;102056.09;;;4.45;80.00
72959;BME280;60008;50.826;6.896;2023-03-01T10:06:06;102054.41;;;5.59;74.72
72959;BME280;60008;50.826;6.896;2023-03-01T10:09:16;102061.16;;;4.78;77.74
72959;BME280;60008;50.826;6.896;2023-03-01T10:12:06;102058.19;;;5.12;76.75
72959;BME280;60008;50.826;6.896;2023-03-01T10:15:14;102048.66;;;7.11;66.55
72959;BME280;60008;50.826;6.896;2023-03-01T10:18:04;102047.78;;;6.33;64.72
72959;BME280;60008;50.826;6.896;2023-03-01T10:21:01;102048.53;;;4.55;77.69
72959;BME280;60008;50.826;6.896;2023-03-01T10:23:50;102043.94;;;5.71;73.87
72959;BME280;60008;50.826;6.896;2023-03-01T10:26:56;102039.59;;;5.15;70.18
72959;BME280;60008;50.826;6.896;2023-03-01T10:29:55;102020.47;;;3.96;78.40
72959;BME280;60008;50.826;6.896;2023-03-01T10:32:44;102024.22;;;5.09;75.14
72959;BME280;60008;50.826;6.896;2023-03-01T10:35:32;102019.34;;;4.45;77.46
72959;BME280;60008;50.826;6.896;2023-03-01T10:38:19;102023.28;;;5.10;76.61
72959;BME280;60008;50.826;6.896;2023-03-01T10:41:06;102023.75;;;5.03;76.16
72959;BME280;60008;50.826;6.896;2023-03-01T10:43:54;102021.66;;;4.79;77.88
72959;BME280;60008;50.826;6.896;2023-03-01T10:46:39;102010.63;;;5.98;71.60
72959;BME280;60008;50.826;6.896;2023-03-01T10:49:24;102009.00;;;6.62;67.52
72959;BME280;60008;50.826;6.896;2023-03-01T10:52:18;102012.16;;;7.05;65.52
72959;BME280;60008;50.826;6.896;2023-03-01T10:55:26;102015.34;;;5.53;71.22
72959;BME280;60008;50.826;6.896;2023-03-01T11:04:12;101983.72;;;8.41;60.67
72959;BME280;60008;50.826;6.896;2023-03-01T11:07:00;101975.19;;;9.59;56.61
72959;BME280;60008;50.826;6.896;2023-03-01T11:09:45;101967.13;;;11.17;51.79
72959;BME280;60008;50.826;6.896;2023-03-01T11:12:30;101966.25;;;6.07;60.92
72959;BME280;60008;50.826;6.896;2023-03-01T11:15:24;101968.81;;;5.26;66.54
72959;BME280;60008;50.826;6.896;2023-03-01T11:18:20;101962.97;;;6.93;62.71
72959;BME280;60008;50.826;6.896;2023-03-01T11:21:07;101949.47;;;8.28;58.95
72959;BME280;60008;50.826;6.896;2023-03-01T11:23:53;101948.88;;;7.77;61.49
72959;BME280;60008;50.826;6.896;2023-03-01T11:26:44;101947.22;;;6.16;63.62
72959;BME280;60008;50.826;6.896;2023-03-01T11:29:42;101945.22;;;8.26;58.55
72959;BME280;60008;50.826;6.896;2023-03-01T11:32:41;101933.72;;;9.38;53.93
72959;BME280;60008;50.826;6.896;2023-03-01T11:35:28;101939.25;;;5.64;60.07
72959;BME280;60008;50.826;6.896;2023-03-01T11:38:25;101919.03;;;7.77;57.53
72959;BME280;60008;50.826;6.896;2023-03-01T11:41:32;101930.59;;;6.40;62.01
72959;BME280;60008;50.826;6.896;2023-03-01T11:44:24;101925.19;;;8.00;56.20
72959;BME280;60008;50.826;6.896;2023-03-01T11:47:28;101913.56;;;7.44;57.73
72959;BME280;60008;50.826;6.896;2023-03-01T11:50:39;101917.41;;;6.91;57.18
72959;BME280;60008;50.826;6.896;2023-03-01T11:53:49;101922.38;;;6.83;57.44
72959;BME280;60008;50.826;6.896;2023-03-01T11:56:43;101912.53;;;8.73;54.22
72959;BME280;60008;50.826;6.896;2023-03-01T12:05:51;101890.81;;;7.77;56.44
72959;BME280;60008;50.826;6.896;2023-03-01T12:09:12;101880.94;;;5.84;59.96
72959;BME280;60008;50.826;6.896;2023-03-01T12:12:43;101872.97;;;5.98;61.22
72959;BME280;60008;50.826;6.896;2023-03-01T12:21:56;101871.50;;;5.94;59.60
72959;BME280;60008;50.826;6.896;2023-03-01T12:25:00;101864.38;;;6.21;61.03
72959;BME280;60008;50.826;6.896;2023-03-01T12:34:38;101860.97;;;6.07;59.12
72959;BME280;60008;50.826;6.896;2023-03-01T12:37:33;101860.66;;;5.98;57.61
72959;BME280;60008;50.826;6.896;2023-03-01T12:49:50;101854.88;;;6.31;58.30
72959;BME280;60008;50.826;6.896;2023-03-01T12:52:41;101848.78;;;6.18;58.91
72959;BME280;60008;50.826;6.896;2023-03-01T12:55:35;101838.78;;;6.23;57.50
72959;BME280;60008;50.826;6.896;2023-03-01T12:58:32;101833.81;;;6.56;58.09
72959;BME280;60008;50.826;6.896;2023-03-01T13:04:51;101829.09;;;5.86;59.41
72959;BME280;60008;50.826;6.896;2023-03-01T13:07:53;101816.22;;;6.44;58.31
72959;BME280;60008;50.826;6.896;2023-03-01T13:10:48;101812.72;;;6.56;58.43
72959;BME280;60008;50.826;6.896;2023-03-01T13:13:34;101812.44;;;6.48;57.51
72959;BME280;60008;50.826;6.896;2023-03-01T13:19:17;101810.47;;;6.76;57.10
72959;BME280;60008;50.826;6.896;2023-03-01T13:22:26;101806.22;;;6.86;57.59
72959;BME280;60008;50.826;6.896;2023-03-01T13:25:18;101803.44;;;7.00;57.18
72959;BME280;60008;50.826;6.896;2023-03-01T13:34:40;101799.44;;;6.71;55.28
72959;BME280;60008;50.826;6.896;2023-03-01T13:37:31;101795.28;;;6.79;55.77
72959;BME280;60008;50.826;6.896;2023-03-01T13:43:29;101794.47;;;6.66;55.56
72959;BME280;60008;50.826;6.896;2023-03-01T13:46:20;101792.41;;;6.82;57.07
72959;BME280;60008;50.826;6.896;2023-03-01T13:49:13;101783.97;;;6.90;55.72
72959;BME280;60008;50.826;6.896;2023-03-01T13:51:59;101782.50;;;7.09;56.18
72959;BME280;60008;50.826;6.896;2023-03-01T13:54:44;101772.22;;;7.41;56.62
72959;BME280;60008;50.826;6.896;2023-03-01T13:57:33;101767.94;;;7.51;54.21
72959;BME280;60008;50.826;6.896;2023-03-01T14:00:39;101757.75;;;7.47;55.67
72959;BME280;60008;50.826;6.896;2023-03-01T14:03:25;101768.56;;;7.55;54.36
72959;BME280;60008;50.826;6.896;2023-03-01T14:06:16;101763.69;;;7.38;53.94
72959;BME280;60008;50.826;6.896;2023-03-01T14:09:08;101762.81;;;7.26;54.07
72959;BME280;60008;50.826;6.896;2023-03-01T14:12:37;101762.94;;;7.25;53.72
72959;BME280;60008;50.826;6.896;2023-03-01T14:15:32;101755.94;;;7.47;53.94
72959;BME280;60008;50.826;6.896;2023-03-01T14:18:25;101757.38;;;7.51;52.85
72959;BME280;60008;50.826;6.896;2023-03-01T14:21:14;101746.66;;;7.88;54.90
72959;BME280;60008;50.826;6.896;2023-03-01T14:24:00;101745.56;;;7.68;52.56
72959;BME280;60008;50.826;6.896;2023-03-01T14:26:46;101737.53;;;7.80;53.07
72959;BME280;60008;50.826;6.896;2023-03-01T14:29:36;101730.88;;;7.53;51.90
72959;BME280;60008;50.826;6.896;2023-03-01T14:32:25;101724.94;;;7.73;52.69
72959;BME280;60008;50.826;6.896;2023-03-01T14:35:22;101724.91;;;7.62;51.96
72959;BME280;60008;50.826;6.896;2023-03-01T14:38:20;101700.25;;;7.85;52.59
72959;BME280;60008;50.826;6.896;2023-03-01T14:41:11;101693.28;;;7.84;54.30
72959;BME280;60008;50.826;6.896;2023-03-01T14:44:02;101697.25;;;7.90;51.58
72959;BME280;60008;50.826;6.896;2023-03-01T14:46:53;101699.16;;;7.88;51.80
72959;BME280;60008;50.826;6.896;2023-03-01T14:49:39;101691.25;;;7.76;51.57
72959;BME280;60008;50.826;6.896;2023-03-01T14:52:33;101689.31;;;7.90;53.54
72959;BME280;60008;50.826;6.896;2023-03-01T14:55:22;101685.34;;;8.06;51.82
72959;BME280;60008;50.826;6.896;2023-03-01T14:58:15;101688.22;;;7.81;51.33
72959;BME280;60008;50.826;6.896;2023-03-01T15:01:04;101680.91;;;7.62;50.75
72959;BME280;60008;50.826;6.896;2023-03-01T15:03:50;101678.88;;;7.88;50.47
72959;BME280;60008;50.826;6.896;2023-03-01T15:06:35;101672.41;;;7.81;50.38
72959;BME280;60008;50.826;6.896;2023-03-01T15:09:22;101672.63;;;7.78;51.06
72959;BME280;60008;50.826;6.896;2023-03-01T15:12:34;101671.94;;;7.76;50.42
72959;BME280;60008;50.826;6.896;2023-03-01T15:15:33;101663.41;;;7.72;50.46
72959;BME280;60008;50.826;6.896;2023-03-01T15:18:26;101657.88;;;7.87;50.31
72959;BME280;60008;50.826;6.896;2023-03-01T15:21:21;101652.59;;;7.87;50.33
72959;BME280;60008;50.826;6.896;2023-03-01T15:24:18;101651.41;;;7.91;51.00
72959;BME280;60008;50.826;6.896;2023-03-01T15:27:04;101649.78;;;8.44;51.49
72959;BME280;60008;50.826;6.896;2023-03-01T15:29:59;101649.81;;;8.10;54.08
72959;BME280;60008;50.826;6.896;2023-03-01T15:32:44;101650.63;;;8.44;55.03
72959;BME280;60008;50.826;6.896;2023-03-01T15:35:42;101664.63;;;7.79;58.03
72959;BME280;60008;50.826;6.896;2023-03-01T15:38:36;101658.69;;;7.43;59.72